AirNav   Pilot Hours Calculator
 
 1152 users online  

40CA City of Industry Civic Financial Center Heliport
City of Industry, California, USA

GOING TO CITY OF INDUSTRY?


FAA INFORMATION EFFECTIVE 22 APRIL 2021

Location

FAA Identifier: 40CA
Lat/Long: 34-01-28.4500N 117-57-33.4800W
34-01.474167N 117-57.558000W
34.0245694,-117.9593000
(estimated)
Elevation: 322 ft. / 98.1 m (surveyed)
Variation: 14E (1985)
From city: 1 mile N of CITY OF INDUSTRY, CA
Time zone: UTC -7 (UTC -8 during Standard Time)
Zip code: 91744

Heliport Operations

Heliport use: Private use. Permission required prior to landing
Activation date: 10/1980
Control tower: no
ARTCC: LOS ANGELES CENTER
FSS: RIVERSIDE FLIGHT SERVICE STATION
Attendance: UNATNDD
Wind indicator: yes
Segmented circle: no
Lights: SS-SR

Heliport Communications

WX AWOS-3PT at EMT (5 nm NW): 118.75 ((626) 444-1107)
WX ASOS at FUL (9 nm S): PHONE 714-870-1372
WX AWOS-3PT at POC (10 nm NE): 124.4 (909-596-1523)
WX AWOS-3P at CCB (14 nm E): 119.525 (909-985-4731)
WX ASOS at LGB (16 nm SW): PHONE 562-424-0572
WX AWOS-3PT at CPM (16 nm SW): 127.150 (310-631-4958)
WX ASOS at CNO (16 nm E): PHONE 909-393-5823
WX ASOS at ONT (18 nm E): PHONE 909-937-2186
WX AWOS-3PT at AJO (19 nm SE): 132.175 (951-340-4764)
WX ASOS at HHR (20 nm W): PHONE 310-973-8930

Nearby radio navigation aids

VOR radial/distance  VOR name  Freq  Var
POMr234/9.2POMONA VORTAC110.4015E
SLIr003/15.2SEAL BEACH VORTAC115.7015E
PDZr272/22.3PARADISE VORTAC112.2015E
ELBr317/23.8EL TORO VOR/DME117.2014E
LAXr062/24.2LOS ANGELES VORTAC113.6015E
SMOr073/24.8SANTA MONICA VOR/DME110.8015E
RALr265/(25.7)RIVERSIDE VOR112.4014E
VNYr099/29.0VAN NUYS VOR/DME113.1015E
PMDr157/36.8PALMDALE VORTAC114.5015E

Heliport Services

Runway Information

Helipad H1

Dimensions: 50 x 50 ft. / 15 x 15 m
HELIPAD WITHIN A 80' X 80' LANDING/TAKEOFF AREA.
Surface: asphalt
Runway edge lights: low intensity
Latitude: 34-01.474167N
Longitude: 117-57.558000W
Elevation: 322.0 ft.
Traffic pattern: leftleft

Heliport Ownership and Management from official FAA records

Ownership: Privately-owned
Owner: INDUSTRY URBAN DEVELOPMENT
15625 EAST STAFFORD ST, STE 100
CITY OF INDUSTRY, CA 91744
Phone 213-961-6341
Manager: KEVIN RADECKI
15625 EAST STAFFORD ST, STE 100
CITY OF INDUSTRY, CA 91744
Phone 213-333-2211

Additional Remarks

APPROACHES TO HELIPAD 132 DEGREES AND 295 DEGREES; DEPARTURES 115 DEGREES AND 312 DEGREES.
FOR CD CTC LOS ANGELES ARTCC AT 661-575-2079.

Instrument Procedures

There are no published instrument procedures at 40CA.

Some nearby airports with instrument procedures:

KEMT - San Gabriel Valley Airport (5 nm NW)
KFUL - Fullerton Municipal Airport (9 nm S)
KPOC - Brackett Field Airport (10 nm NE)
KCCB - Cable Airport (14 nm E)
KSLI - Los Alamitos Army Airfield (15 nm S)
KLGB - Long Beach Airport (Daugherty Field) (16 nm SW)
KCNO - Chino Airport (16 nm E)
KONT - Ontario International Airport (18 nm E)
KAJO - Corona Municipal Airport (19 nm SE)
KHHR - Jack Northrop Field/Hawthorne Municipal Airport (20 nm W)
 
Loc | Ops | Rwys | IFR | FBO | Links
Com | Nav | Svcs | Stats | Notes

San Bernardino International Airport Authority
 
Area around 40CA (City of Industry Civic Financial Center Heliport)
 
Road maps at: MapQuest Bing Google
 
Aerial photo
No photo
 
Sectional chart

 
Airport distance calculator
Flying to City of Industry Civic Financial Center Heliport? Find the distance to fly.

From to 40CA

Sunrise and sunset
Times for 15-May-2021
 Local
(UTC-7)
 Zulu
(UTC)
Morning civil twilight05:2412:24
Sunrise05:5112:51
Sunset19:4502:45
Evening civil twilight20:1303:13

Current date and time
Zulu (UTC)  15-May-2021 20:46:26
Local (UTC-7)  15-May-2021 13:46:26
 
METAR
KEMT 
4nm NW 
151945Z VRB03KT 10SM OVC039 19/09 A2994
KFUL 
10nm S 
151953Z 22007KT 10SM OVC035 20/12 A2993 RMK AO2 SLP132 T02000122
KPOC 
11nm NE 
151947Z 24008KT 10SM BKN034 19/09 A2994
KCQT 
14nm W 
151952Z AUTO 00000KT 10SM OVC040 21/11 A2992 RMK AO2 SLP131 T02060106
KCCB 
14nm E 
119.525 909-985-4731
152035Z AUTO 24012KT 10SM OVC032 18/09 A2992 RMK AO2
KLGB 
16nm SW 
151953Z 19006KT 10SM OVC042 20/10 A2994 RMK AO2 SLP138 T02000100
KSLI 
16nm S 
151958Z 20011KT 10SM SCT030 BKN040 19/11 A2994 RMK AO2A SLP142 T01940114
KCNO 
17nm E 
151953Z VRB03KT 10SM BKN035 21/10 A2993 RMK AO2 SLP132 T02060100
KONT 
19nm E 
151953Z 26006KT 10SM FEW030 BKN036 21/09 A2992 RMK AO2 SLP123 T02060094
KAJO 
19nm SE 
151956Z AUTO 27008KT 10SM OVC035 19/11 A2993 RMK AO2 SLP131 T01940111
TAF
KLGB 
16nm SW 
151723Z 1518/1618 19008KT P6SM FEW025 BKN035 FM160000 29008KT P6SM BKN035 FM160500 VRB03KT P6SM OVC025 FM161600 VRB03KT P6SM SCT025 OVC035
KSLI 
16nm S 
151309Z 1513/1619 VRB06KT 9999 OVC030 QNH2993INS BECMG 1517/1518 20006KT 8000 BR SCT010 OVC020 QNH2994INS BECMG 1520/1521 20006KT 9999 NSW SCT025 QNH2992INS BECMG 1602/1603 22006KT 9999 BKN025 QNH2989INS TEMPO 1606/1614 8000 BR BKN003 BECMG 1615/1616 VRB06KT 8000 BR OVC010 QNH2997INS TX19/1523Z TN14/1513Z
KONT 
19nm E 
151731Z 1518/1624 VRB04KT P6SM SCT025 BKN035 FM152000 25011G18KT P6SM SCT025 BKN035 FM160400 25010G17KT P6SM BKN025 FM160800 24011KT P6SM VCSH OVC020 FM161500 24005KT P6SM VCSH BKN025 FM161900 24011G18KT P6SM SCT025 BKN035
NOTAMs
Click for the latest NOTAMs
NOTAMs are issued by the DoD/FAA and will open in a separate window not controlled by AirNav.

 

 
 

Would you like to see your business listed on this page?

 If your business provides an interesting product or service to pilots, flight crews, aircraft, or users of the City of Industry Civic Financial Center Heliport, you should consider listing it here.  To start the listing process, click on the button below
 
Add a business
 

Other Pages about City of Industry Civic Financial Center Heliport

Update a link
 
Copyright © AirNav, LLC. All rights reserved. Privacy Policy  Contact